Time;durP1;ratioP1;P1;durP2;ratioP2;P2;SDS_P1;SDS_P2;PMS_P1;PMS_P2;Temp;Humidity;BMP_temperature;BMP_pressure;BME280_temperature;BME280_humidity;BME280_pressure;Samples;Min_cycle;Max_cycle;Signal;HPM_P1;HPM_P2
2023/09/24 00:00:10;;;;;;;3.33;2.50;;;;;;;23.51;80.21;99189.50;5113939;28;20252;-68
2023/09/24 00:02:36;;;;;;;5.20;2.17;;;;;;;23.52;80.78;99188.53;5114643;28;20629;-68
2023/09/24 00:05:04;;;;;;;2.67;2.53;;;;;;;23.53;80.80;99195.41;5114344;28;20578;-67
2023/09/24 00:07:31;;;;;;;4.57;2.50;;;;;;;23.55;80.94;99193.50;5114097;28;20195;-68
2023/09/24 00:10:00;;;;;;;3.73;2.47;;;;;;;23.56;81.84;99189.91;5113785;28;20627;-68
2023/09/24 00:12:28;;;;;;;4.00;2.83;;;;;;;23.48;83.01;99181.91;5114078;28;20239;-68
2023/09/24 00:14:56;;;;;;;8.33;2.57;;;;;;;23.40;84.13;99179.09;5114431;28;20206;-68
2023/09/24 00:17:22;;;;;;;2.37;2.17;;;;;;;23.35;85.27;99176.03;5113759;28;20285;-68
2023/09/24 00:19:49;;;;;;;4.10;2.03;;;;;;;23.30;86.03;99172.97;5113909;28;20205;-68
2023/09/24 00:22:17;;;;;;;3.33;2.30;;;;;;;23.23;86.63;99177.09;5113409;28;20268;-68
2023/09/24 00:24:45;;;;;;;7.40;2.80;;;;;;;23.19;86.86;99170.47;5114424;28;20199;-68
2023/09/24 00:27:12;;;;;;;2.17;2.07;;;;;;;23.24;87.27;99183.97;5113770;28;20202;-68
2023/09/24 00:29:40;;;;;;;2.97;2.40;;;;;;;23.28;87.31;99185.38;5113562;28;20195;-68
2023/09/24 00:32:07;;;;;;;8.83;2.10;;;;;;;23.30;87.03;99193.91;5113613;28;20712;-68
2023/09/24 00:34:34;;;;;;;1.77;1.77;;;;;;;23.32;86.67;99197.22;5113586;28;20674;-68
2023/09/24 00:37:01;;;;;;;1.50;1.43;;;;;;;23.34;86.75;99192.69;5113889;28;20195;-68
2023/09/24 00:39:28;;;;;;;2.70;2.60;;;;;;;23.38;86.90;99196.69;5113538;28;20195;-68
2023/09/24 00:41:55;;;;;;;2.30;2.10;;;;;;;23.41;86.18;99197.31;5113262;28;20221;-68
2023/09/24 00:44:22;;;;;;;2.73;2.53;;;;;;;23.44;86.28;99209.28;5113778;27;20191;-68
2023/09/24 00:46:50;;;;;;;4.37;2.47;;;;;;;23.45;86.16;99198.69;5113113;28;20256;-68
2023/09/24 00:49:17;;;;;;;3.07;1.97;;;;;;;23.47;85.88;99202.00;5112985;28;20202;-68
2023/09/24 00:51:44;;;;;;;3.37;2.43;;;;;;;23.47;85.65;99198.56;5113227;28;20203;-68
2023/09/24 00:54:12;;;;;;;3.33;3.10;;;;;;;23.46;85.27;99197.72;5112316;28;20202;-68
2023/09/24 00:56:39;;;;;;;2.80;2.13;;;;;;;23.44;85.00;99204.88;5112924;28;20198;-68
2023/09/24 00:59:08;;;;;;;2.97;2.50;;;;;;;23.42;84.99;99204.19;5113158;28;20670;-68
2023/09/24 01:01:35;;;;;;;4.73;2.80;;;;;;;23.41;84.50;99201.69;5111838;28;20218;-68
2023/09/24 01:04:05;;;;;;;2.27;2.17;;;;;;;23.38;84.28;99199.31;5112001;28;20281;-68
2023/09/24 01:06:33;;;;;;;4.83;2.77;;;;;;;23.37;84.08;99208.13;5113291;28;20700;-68
2023/09/24 01:09:01;;;;;;;2.33;2.20;;;;;;;23.36;84.09;99209.09;5112963;28;20195;-68
2023/09/24 01:11:31;;;;;;;2.97;2.50;;;;;;;23.34;84.10;99211.00;5112685;28;20195;-68
2023/09/24 01:13:58;;;;;;;2.30;2.20;;;;;;;23.30;84.06;99204.38;5113086;28;20669;-68
2023/09/24 01:16:25;;;;;;;3.27;2.27;;;;;;;23.29;84.54;99208.78;5112599;28;20194;-68
2023/09/24 01:18:53;;;;;;;12.33;2.27;;;;;;;23.26;84.84;99195.16;5113029;28;20206;-68
2023/09/24 01:21:22;;;;;;;4.97;2.87;;;;;;;23.15;85.12;99187.38;5113047;28;20202;-68
2023/09/24 01:23:50;;;;;;;2.10;2.00;;;;;;;23.23;85.12;99204.06;5112389;28;20245;-68
2023/09/24 01:26:18;;;;;;;2.53;1.73;;;;;;;23.21;84.81;99194.69;5112662;28;20259;-68
2023/09/24 01:28:47;;;;;;;2.57;2.37;;;;;;;23.18;85.19;99201.03;5112682;28;20727;-68
2023/09/24 01:31:15;;;;;;;4.13;3.83;;;;;;;23.17;85.48;99188.88;5112563;28;20198;-68
2023/09/24 01:33:43;;;;;;;4.17;2.30;;;;;;;23.13;86.24;99191.91;5112066;28;20190;-68
2023/09/24 01:36:10;;;;;;;2.83;2.63;;;;;;;23.12;87.22;99200.72;5112288;28;20198;-68
2023/09/24 01:38:40;;;;;;;2.90;2.70;;;;;;;23.03;86.98;99186.63;5112835;28;20199;-68
2023/09/24 01:41:10;;;;;;;5.80;2.20;;;;;;;23.02;87.27;99185.81;5112292;28;20628;-68
2023/09/24 01:43:36;;;;;;;2.90;2.43;;;;;;;23.05;87.76;99194.34;5112363;28;20210;-68
2023/09/24 01:46:05;;;;;;;2.53;2.43;;;;;;;23.02;87.99;99204.09;5112240;28;20628;-68
2023/09/24 01:48:33;;;;;;;7.03;3.77;;;;;;;23.00;88.50;99200.78;5112394;28;20199;-68
2023/09/24 01:51:00;;;;;;;2.23;2.03;;;;;;;22.96;89.09;99204.63;5111155;28;20313;-68
2023/09/24 01:53:27;;;;;;;2.50;2.40;;;;;;;22.90;89.28;99207.75;5112005;28;20202;-68
2023/09/24 01:55:54;;;;;;;2.83;2.67;;;;;;;22.81;88.55;99205.88;5111776;28;20666;-68
2023/09/24 01:58:22;;;;;;;7.37;3.10;;;;;;;22.80;86.91;99219.09;5110632;28;20199;-68
2023/09/24 02:00:49;;;;;;;2.50;2.20;;;;;;;22.66;86.40;99203.72;5111801;28;20709;-68
2023/09/24 02:03:16;;;;;;;4.77;2.60;;;;;;;22.66;85.38;99201.13;5111655;28;20217;-68
2023/09/24 02:05:43;;;;;;;1.93;1.83;;;;;;;22.65;85.58;99220.34;5111885;28;20666;-68
2023/09/24 02:08:10;;;;;;;4.17;3.80;;;;;;;22.62;85.78;99210.16;5111647;28;20233;-68
2023/09/24 02:10:39;;;;;;;4.40;2.03;;;;;;;22.53;86.07;99203.88;5111783;28;20198;-68
2023/09/24 02:13:07;;;;;;;2.37;2.27;;;;;;;22.53;86.16;99206.50;5111097;28;20191;-68
2023/09/24 02:15:35;;;;;;;5.30;2.63;;;;;;;22.49;86.58;99205.09;5111987;28;20223;-68
2023/09/24 02:18:04;;;;;;;3.10;2.93;;;;;;;22.47;86.92;99194.78;5111581;28;20195;-68
2023/09/24 02:20:32;;;;;;;3.00;2.80;;;;;;;22.44;86.92;99196.81;5111535;28;20203;-68
2023/09/24 02:23:01;;;;;;;2.83;2.63;;;;;;;22.44;86.78;99199.41;5111658;28;20301;-68
2023/09/24 02:25:30;;;;;;;2.57;2.43;;;;;;;22.41;86.87;99195.28;5111724;28;20983;-68
2023/09/24 02:27:57;;;;;;;3.00;2.80;;;;;;;22.29;86.60;99179.78;5111923;28;20259;-68
2023/09/24 02:30:27;;;;;;;2.63;2.40;;;;;;;22.39;87.03;99201.59;5111240;28;20259;-68
2023/09/24 02:32:55;;;;;;;2.90;2.70;;;;;;;22.36;87.42;99197.41;5111785;28;20238;-68
2023/09/24 02:35:22;;;;;;;3.53;3.23;;;;;;;22.32;88.19;99205.66;5111655;28;21509;-68
2023/09/24 02:37:51;;;;;;;11.00;2.33;;;;;;;22.25;88.70;99210.53;5111769;28;20225;-68
2023/09/24 02:40:21;;;;;;;2.80;2.60;;;;;;;22.22;88.36;99209.97;5110743;28;20201;-68
2023/09/24 02:42:49;;;;;;;6.30;3.07;;;;;;;22.19;88.96;99216.25;5111334;28;20221;-68
2023/09/24 02:45:17;;;;;;;5.17;2.53;;;;;;;22.17;88.66;99214.69;5111017;28;20224;-68
2023/09/24 02:47:44;;;;;;;4.73;3.27;;;;;;;22.11;89.54;99212.59;5111617;28;20190;-68
2023/09/24 02:50:13;;;;;;;3.00;2.80;;;;;;;22.03;90.02;99200.19;5110835;28;20235;-68
2023/09/24 02:52:41;;;;;;;2.47;2.37;;;;;;;22.04;89.98;99198.38;5111105;28;20226;-68
2023/09/24 02:55:12;;;;;;;3.20;2.97;;;;;;;21.96;90.88;99194.63;5110849;28;20201;-68
2023/09/24 02:57:39;;;;;;;4.67;2.37;;;;;;;21.82;91.87;99200.06;5111136;28;20201;-68
2023/09/24 03:00:12;;;;;;;6.47;2.63;;;;;;;21.75;92.71;99206.72;5110976;28;20697;-68
2023/09/24 03:02:39;;;;;;;3.13;2.93;;;;;;;21.77;92.96;99217.03;5111294;28;20611;-68
2023/09/24 03:05:08;;;;;;;2.97;2.77;;;;;;;21.75;92.89;99222.38;5110694;28;20202;-68
2023/09/24 03:07:37;;;;;;;2.77;2.67;;;;;;;21.76;92.64;99213.59;5110955;28;20199;-68
2023/09/24 03:10:07;;;;;;;3.73;3.00;;;;;;;21.68;93.17;99200.31;5110785;28;20747;-68
2023/09/24 03:12:34;;;;;;;2.77;2.67;;;;;;;21.70;93.32;99208.88;5111119;28;20198;-68
2023/09/24 03:15:01;;;;;;;4.00;3.10;;;;;;;21.68;93.04;99209.94;5110964;28;20205;-68
2023/09/24 03:17:28;;;;;;;3.17;2.97;;;;;;;21.64;92.97;99219.78;5110562;28;20666;-68
2023/09/24 03:19:55;;;;;;;2.70;2.40;;;;;;;21.61;92.78;99220.03;5110992;28;20213;-68
2023/09/24 03:22:22;;;;;;;4.87;2.70;;;;;;;21.60;92.36;99223.56;5110699;28;20193;-68
2023/09/24 03:24:50;;;;;;;3.00;2.70;;;;;;;21.58;92.54;99222.88;5111883;28;20255;-68
2023/09/24 03:27:17;;;;;;;4.67;2.87;;;;;;;21.55;93.09;99230.91;5114825;28;20198;-68
2023/09/24 03:29:44;;;;;;;2.93;2.73;;;;;;;21.56;92.79;99226.53;5114087;28;20199;-68
2023/09/24 03:32:10;;;;;;;6.97;2.57;;;;;;;21.53;92.61;99230.22;5114914;28;20200;-68
2023/09/24 03:34:38;;;;;;;4.27;2.63;;;;;;;21.49;92.61;99231.41;5114635;28;20721;-68
2023/09/24 03:37:05;;;;;;;5.13;2.73;;;;;;;21.47;92.56;99222.88;5114802;28;20194;-68
2023/09/24 03:39:32;;;;;;;2.90;2.50;;;;;;;21.42;92.91;99220.59;5114410;28;20234;-68
2023/09/24 03:42:00;;;;;;;3.60;3.37;;;;;;;21.38;93.03;99220.97;5114757;28;20198;-68
2023/09/24 03:44:27;;;;;;;3.10;2.90;;;;;;;21.34;93.41;99228.22;5114618;28;20250;-68
2023/09/24 03:46:54;;;;;;;3.27;2.97;;;;;;;21.34;93.06;99227.38;5114821;28;21895;-68
2023/09/24 03:49:21;;;;;;;5.10;2.90;;;;;;;21.33;93.92;99228.31;5113754;28;20285;-68
2023/09/24 03:51:47;;;;;;;3.20;3.10;;;;;;;21.28;94.19;99223.47;5114206;28;20221;-68
2023/09/24 03:54:14;;;;;;;5.50;3.40;;;;;;;21.26;95.11;99234.97;5114330;28;20211;-68
2023/09/24 03:56:42;;;;;;;10.47;3.37;;;;;;;21.16;95.26;99228.78;5114280;27;20205;-68
2023/09/24 03:59:10;;;;;;;4.03;2.73;;;;;;;21.20;95.53;99222.38;5114814;28;20284;-68
2023/09/24 04:01:40;;;;;;;3.73;3.07;;;;;;;21.08;95.45;99218.91;5114222;28;20222;-68
2023/09/24 04:04:06;;;;;;;3.63;3.17;;;;;;;21.17;95.94;99240.84;5114624;28;20643;-68
2023/09/24 04:06:33;;;;;;;8.23;3.27;;;;;;;21.14;96.26;99235.88;5114269;28;20629;-68
2023/09/24 04:09:00;;;;;;;3.70;3.23;;;;;;;21.10;96.36;99235.28;5114059;28;20688;-68
2023/09/24 04:11:27;;;;;;;4.30;3.20;;;;;;;21.09;96.82;99235.38;5113866;28;20201;-68
2023/09/24 04:13:54;;;;;;;3.33;3.13;;;;;;;21.06;97.62;99244.25;5113710;28;20190;-68
2023/09/24 04:16:22;;;;;;;5.43;2.70;;;;;;;21.07;97.85;99237.25;5114165;28;20696;-68
2023/09/24 04:18:50;;;;;;;3.87;3.17;;;;;;;21.02;98.22;99236.78;5113540;28;20202;-68
2023/09/24 04:21:18;;;;;;;7.97;3.60;;;;;;;20.79;99.07;99221.09;5111247;27;20214;-68
2023/09/24 04:23:45;;;;;;;3.63;3.30;;;;;;;20.86;99.46;99242.31;5113201;28;20210;-68
2023/09/24 04:26:22;;;;;;;3.37;3.17;;;;;;;20.90;99.54;99265.41;5113421;28;20208;-68
2023/09/24 04:28:49;;;;;;;4.77;3.47;;;;;;;20.91;99.63;99266.25;5113722;28;20630;-67
2023/09/24 04:31:16;;;;;;;3.03;2.93;;;;;;;20.92;99.42;99266.16;5111914;28;20205;-68
2023/09/24 04:33:44;;;;;;;3.80;3.50;;;;;;;20.94;99.26;99272.06;5113632;28;20628;-67
2023/09/24 04:36:11;;;;;;;5.33;3.07;;;;;;;20.99;98.96;99273.50;5111309;28;20194;-68
2023/09/24 04:38:41;;;;;;;3.90;3.27;;;;;;;20.97;98.89;99284.03;5113542;28;20198;-68
2023/09/24 04:41:08;;;;;;;3.63;3.40;;;;;;;20.97;98.09;99283.22;5113399;28;20209;-67
2023/09/24 04:43:35;;;;;;;3.27;3.07;;;;;;;20.96;97.67;99285.00;5112750;28;20563;-68
2023/09/24 04:46:05;;;;;;;3.17;2.87;;;;;;;20.98;97.58;99292.69;5111181;28;20224;-68
2023/09/24 04:48:32;;;;;;;3.60;2.80;;;;;;;20.98;97.34;99292.69;5111322;28;20237;-68
2023/09/24 04:51:01;;;;;;;3.40;3.20;;;;;;;20.97;97.45;99291.03;5113214;28;20201;-68
2023/09/24 04:53:27;;;;;;;7.10;3.17;;;;;;;21.00;97.64;99289.03;5113064;28;20187;-68
2023/09/24 04:55:55;;;;;;;3.67;3.40;;;;;;;21.03;97.45;99295.78;5113259;28;20662;-68
2023/09/24 04:58:21;;;;;;;3.80;3.30;;;;;;;21.07;97.05;99302.41;5113378;28;20204;-68
2023/09/24 05:00:48;;;;;;;4.83;3.13;;;;;;;21.13;96.97;99307.22;5112751;28;20254;-68
2023/09/24 05:03:15;;;;;;;3.17;2.97;;;;;;;21.18;96.53;99303.31;5112795;27;20214;-68
2023/09/24 05:05:42;;;;;;;6.80;3.23;;;;;;;21.26;96.70;99307.97;5113198;28;20205;-68
2023/09/24 05:08:11;;;;;;;3.40;3.10;;;;;;;21.30;97.13;99296.34;5113312;28;20237;-68
2023/09/24 05:10:42;;;;;;;3.40;3.10;;;;;;;21.36;96.64;99303.69;5113074;28;20194;-67
2023/09/24 05:13:09;;;;;;;3.20;2.80;;;;;;;21.43;97.03;99300.53;5112782;28;20202;-68
2023/09/24 05:15:36;;;;;;;3.63;3.43;;;;;;;21.48;97.76;99302.78;5112304;28;20558;-68
2023/09/24 05:18:04;;;;;;;3.23;3.07;;;;;;;21.56;97.50;99300.41;5112925;28;20289;-68
2023/09/24 05:20:31;;;;;;;3.83;3.53;;;;;;;21.67;97.92;99296.97;5112453;28;20202;-68
2023/09/24 05:22:58;;;;;;;6.60;3.13;;;;;;;21.76;97.48;99297.09;5112761;28;20230;-68
2023/09/24 05:25:26;;;;;;;4.17;3.67;;;;;;;21.83;98.25;99303.50;5112609;28;20290;-68
2023/09/24 05:27:53;;;;;;;3.43;3.13;;;;;;;21.91;98.42;99302.94;5112574;28;20202;-68
2023/09/24 05:30:20;;;;;;;4.40;3.67;;;;;;;22.00;98.31;99309.22;5112561;28;20206;-68
2023/09/24 05:32:47;;;;;;;3.80;3.57;;;;;;;22.09;98.80;99308.50;5112782;28;20663;-68
2023/09/24 05:35:14;;;;;;;4.80;4.40;;;;;;;22.19;99.51;99306.81;5112332;28;20278;-68
2023/09/24 05:37:41;;;;;;;4.03;3.63;;;;;;;22.24;98.49;99309.88;5112587;28;20675;-68
2023/09/24 05:40:10;;;;;;;4.33;3.83;;;;;;;22.31;98.45;99306.69;5110387;27;20209;-68
2023/09/24 05:42:38;;;;;;;3.27;2.97;;;;;;;22.31;97.97;99298.00;5114785;27;20198;-68
2023/09/24 05:45:05;;;;;;;4.20;3.90;;;;;;;22.48;97.52;99310.56;5113236;27;20640;-68
2023/09/24 05:47:32;;;;;;;2.70;2.50;;;;;;;22.49;97.54;99306.97;5111924;28;20199;-68
2023/09/24 05:49:59;;;;;;;2.83;2.60;;;;;;;22.70;97.31;99317.50;5111870;28;20565;-68
2023/09/24 05:52:26;;;;;;;2.63;2.53;;;;;;;22.79;97.32;99314.97;5112371;28;20666;-68
2023/09/24 05:54:53;;;;;;;7.47;3.30;;;;;;;22.86;96.44;99316.16;5111958;28;20243;-68
2023/09/24 05:57:20;;;;;;;4.50;2.20;;;;;;;22.98;95.72;99315.13;5112388;28;20577;-68
2023/09/24 05:59:49;;;;;;;3.03;2.83;;;;;;;23.08;95.35;99319.59;5111755;28;20230;-67
2023/09/24 06:02:16;;;;;;;3.03;2.77;;;;;;;23.18;94.40;99325.72;5111993;28;20234;-68
2023/09/24 06:04:42;;;;;;;2.40;2.23;;;;;;;23.26;94.31;99328.53;5111553;28;20311;-68
2023/09/24 06:07:09;;;;;;;3.60;2.23;;;;;;;23.35;93.91;99315.53;5111909;28;20207;-68
2023/09/24 06:09:36;;;;;;;2.87;2.13;;;;;;;23.50;93.32;99327.34;5111808;28;20187;-68
2023/09/24 06:12:03;;;;;;;3.63;2.40;;;;;;;23.45;92.47;99320.84;5111542;28;20198;-67
2023/09/24 06:14:31;;;;;;;2.33;2.23;;;;;;;23.61;92.28;99318.59;5110996;28;20222;-67
2023/09/24 06:16:59;;;;;;;2.37;2.17;;;;;;;23.72;91.23;99322.88;5110550;28;20199;-68
2023/09/24 06:19:26;;;;;;;2.60;2.40;;;;;;;23.85;91.01;99320.88;5111548;28;20617;-65
2023/09/24 06:21:53;;;;;;;7.27;2.60;;;;;;;23.93;90.72;99318.44;5111290;28;20202;-66
2023/09/24 06:24:21;;;;;;;3.33;2.23;;;;;;;24.13;90.06;99335.09;5111347;28;20233;-66
2023/09/24 06:26:48;;;;;;;2.60;2.50;;;;;;;24.19;88.47;99324.06;5111626;28;20203;-67
2023/09/24 06:29:15;;;;;;;2.83;1.93;;;;;;;24.35;87.23;99340.09;5111570;28;20195;-64
2023/09/24 06:31:42;;;;;;;2.50;2.30;;;;;;;24.39;86.82;99342.34;5110958;28;20264;-66
2023/09/24 06:34:10;;;;;;;4.50;1.80;;;;;;;24.50;87.42;99339.56;5111181;28;20186;-69
2023/09/24 06:36:37;;;;;;;6.30;2.03;;;;;;;24.65;85.94;99337.41;5108576;28;20637;-66
2023/09/24 06:39:08;;;;;;;1.77;1.67;;;;;;;24.78;85.57;99345.81;5111274;28;20207;-67
2023/09/24 06:41:35;;;;;;;2.47;2.27;;;;;;;24.89;84.67;99348.34;5111260;28;20208;-67
2023/09/24 06:44:02;;;;;;;2.90;1.63;;;;;;;24.96;83.41;99338.97;5110231;28;20271;-68
2023/09/24 06:46:28;;;;;;;4.60;2.53;;;;;;;25.02;82.14;99332.31;5111517;28;20202;-67
2023/09/24 06:48:55;;;;;;;4.33;2.03;;;;;;;25.10;82.96;99332.47;5111144;28;20202;-68
2023/09/24 06:51:23;;;;;;;2.53;1.93;;;;;;;25.17;81.73;99324.88;5109944;27;20662;-68
2023/09/24 06:53:52;;;;;;;5.00;2.03;;;;;;;25.29;80.77;99328.97;5110726;28;20203;-67
2023/09/24 06:56:19;;;;;;;6.10;2.50;;;;;;;25.35;80.40;99328.41;5110890;28;20195;-68
2023/09/24 06:58:46;;;;;;;7.63;2.40;;;;;;;25.39;79.75;99328.00;5109763;28;20685;-68
2023/09/24 07:01:12;;;;;;;3.33;1.73;;;;;;;25.58;79.72;99327.97;5110015;28;20728;-68
2023/09/24 07:03:39;;;;;;;1.97;1.87;;;;;;;25.64;77.23;99329.19;5110933;27;20198;-68
2023/09/24 07:06:06;;;;;;;2.50;1.50;;;;;;;25.68;77.05;99327.13;5110102;28;20206;-68
2023/09/24 07:08:35;;;;;;;2.03;1.83;;;;;;;25.66;76.61;99331.66;5109367;28;20225;-67
2023/09/24 07:11:27;;;;;;;1.73;1.63;;;;;;;25.77;77.44;99332.34;5113186;28;20624;-68
2023/09/24 07:13:55;;;;;;;2.10;1.30;;;;;;;25.83;75.96;99342.25;5106840;28;20203;-67
2023/09/24 07:16:23;;;;;;;3.60;1.60;;;;;;;25.86;76.15;99344.59;5108749;28;20454;-68
2023/09/24 07:18:51;;;;;;;2.60;1.67;;;;;;;25.79;75.29;99335.63;5110504;28;20241;-68
2023/09/24 07:21:18;;;;;;;7.63;1.80;;;;;;;25.93;75.10;99337.81;5110917;28;20203;-67
2023/09/24 07:23:47;;;;;;;1.87;1.47;;;;;;;25.94;74.33;99339.47;5111290;28;20191;-68
2023/09/24 07:26:14;;;;;;;1.47;1.47;;;;;;;26.07;75.01;99339.94;5111126;28;20569;-68
2023/09/24 07:28:41;;;;;;;1.97;1.63;;;;;;;26.11;74.64;99341.28;5111166;28;20218;-68
2023/09/24 07:31:13;;;;;;;2.30;1.70;;;;;;;26.15;73.33;99343.63;5110663;28;20198;-68
2023/09/24 07:33:42;;;;;;;6.17;1.70;;;;;;;26.21;73.23;99335.19;5110479;28;20573;-68
2023/09/24 07:36:09;;;;;;;1.67;1.30;;;;;;;26.33;72.68;99334.03;5110789;28;20222;-68
2023/09/24 07:38:36;;;;;;;1.60;1.50;;;;;;;26.45;71.83;99332.84;5110779;28;20251;-68
2023/09/24 07:41:04;;;;;;;1.93;1.50;;;;;;;26.26;71.90;99327.72;5111233;28;20223;-68
2023/09/24 07:43:31;;;;;;;3.10;2.00;;;;;;;26.46;71.94;99334.50;5111198;28;20195;-68
2023/09/24 07:45:58;;;;;;;2.03;1.90;;;;;;;26.62;72.04;99334.69;5110931;28;20651;-68
2023/09/24 07:48:25;;;;;;;1.90;1.57;;;;;;;26.66;69.94;99330.75;5110646;28;20194;-68
2023/09/24 07:50:54;;;;;;;3.70;1.50;;;;;;;26.78;70.98;99326.09;5110967;28;20202;-68
2023/09/24 07:53:22;;;;;;;1.57;1.47;;;;;;;26.95;70.50;99326.13;5110904;28;20228;-68
2023/09/24 07:55:54;;;;;;;2.13;2.03;;;;;;;27.06;69.88;99323.25;5110768;28;20573;-68
2023/09/24 07:58:23;;;;;;;3.53;2.03;;;;;;;27.17;67.73;99326.63;5110849;28;20739;-68
2023/09/24 08:00:49;;;;;;;1.03;1.03;;;;;;;27.13;68.50;99319.03;5110529;28;20225;-68
2023/09/24 08:03:16;;;;;;;1.87;1.77;;;;;;;27.16;67.82;99327.59;5110728;28;20633;-69
2023/09/24 08:05:43;;;;;;;1.70;1.60;;;;;;;27.20;68.77;99323.69;5110594;28;20759;-68
2023/09/24 08:08:10;;;;;;;1.97;1.87;;;;;;;27.26;67.60;99312.53;5111198;28;20194;-69
2023/09/24 08:10:37;;;;;;;1.60;1.50;;;;;;;27.16;67.15;99317.06;5110796;28;20195;-68
2023/09/24 08:13:04;;;;;;;2.17;1.97;;;;;;;27.03;67.17;99306.94;5114495;28;20251;-68
2023/09/24 08:15:32;;;;;;;1.63;1.57;;;;;;;26.93;67.17;99312.28;5114346;28;20203;-68
2023/09/24 08:17:59;;;;;;;5.43;2.00;;;;;;;26.80;68.39;99306.56;5114737;28;20202;-68
2023/09/24 08:20:26;;;;;;;2.40;2.30;;;;;;;26.90;69.15;99299.44;5114235;28;20202;-70
2023/09/24 08:22:53;;;;;;;1.67;1.50;;;;;;;27.08;68.11;99316.03;5114082;27;20195;-69
2023/09/24 08:25:20;;;;;;;1.73;1.63;;;;;;;27.32;67.49;99315.38;5114148;27;20214;-69
2023/09/24 08:27:47;;;;;;;1.70;1.60;;;;;;;27.43;66.07;99319.56;5114186;28;20674;-69
2023/09/24 08:30:13;;;;;;;1.97;1.87;;;;;;;27.49;65.15;99311.91;5114072;28;20199;-68
2023/09/24 08:32:42;;;;;;;1.60;1.50;;;;;;;27.61;65.57;99317.72;5113680;28;20219;-68
2023/09/24 08:35:09;;;;;;;1.20;1.20;;;;;;;27.77;66.33;99309.91;5114195;28;20187;-69
2023/09/24 08:37:36;;;;;;;1.60;1.60;;;;;;;27.89;63.53;99300.72;5114084;28;20201;-69
2023/09/24 08:40:03;;;;;;;3.67;1.47;;;;;;;27.87;63.49;99297.44;5113836;28;20206;-68
2023/09/24 08:42:33;;;;;;;2.03;1.50;;;;;;;27.94;64.80;99306.38;5113867;28;20195;-69
2023/09/24 08:45:10;;;;;;;2.40;1.43;;;;;;;28.02;63.85;99295.03;5112604;28;20218;-69
2023/09/24 08:47:38;;;;;;;1.80;1.70;;;;;;;28.10;63.58;99301.19;5113717;28;20198;-69
2023/09/24 08:50:08;;;;;;;2.00;1.90;;;;;;;28.30;63.00;99311.47;5113767;28;20305;-69
2023/09/24 08:52:37;;;;;;;1.40;1.03;;;;;;;28.42;63.05;99302.25;5113553;28;20198;-69
2023/09/24 08:55:06;;;;;;;1.90;1.80;;;;;;;28.55;63.75;99307.88;5113501;28;20223;-68
2023/09/24 08:57:34;;;;;;;2.03;1.93;;;;;;;28.72;61.94;99299.03;5113606;28;20195;-69
2023/09/24 09:00:01;;;;;;;2.23;2.13;;;;;;;28.76;61.85;99305.63;5113139;28;20241;-69
2023/09/24 09:02:28;;;;;;;2.70;2.20;;;;;;;28.83;59.36;99305.78;5113637;28;20218;-69
2023/09/24 09:04:56;;;;;;;1.63;1.53;;;;;;;28.81;60.45;99292.78;5113292;28;20222;-68
2023/09/24 09:07:24;;;;;;;1.70;1.60;;;;;;;28.90;60.04;99294.41;5113520;28;20255;-68
2023/09/24 09:09:55;;;;;;;2.03;1.70;;;;;;;29.02;62.02;99282.53;5113577;28;20203;-69
2023/09/24 09:12:22;;;;;;;2.47;1.73;;;;;;;29.22;59.45;99295.38;5113455;27;20187;-69
2023/09/24 09:14:49;;;;;;;2.77;1.33;;;;;;;29.14;57.73;99299.66;5113485;28;20571;-68
2023/09/24 09:17:16;;;;;;;1.37;1.37;;;;;;;28.96;58.78;99277.09;5113088;28;20195;-68
2023/09/24 09:19:52;;;;;;;1.93;1.50;;;;;;;29.06;58.87;99285.66;5113001;28;20256;-68
2023/09/24 09:22:20;;;;;;;3.10;1.10;;;;;;;29.07;58.71;99272.31;5112933;28;20682;-68
2023/09/24 09:25:01;;;;;;;1.67;1.58;;;;;;;29.21;59.01;99277.91;5113198;28;20222;-69
2023/09/24 09:27:31;;;;;;;1.87;1.63;;;;;;;29.01;57.93;99278.25;5108367;28;20669;-68
2023/09/24 09:30:12;;;;;;;1.77;1.20;;;;;;;29.05;57.53;99274.28;5112902;28;20666;-69
2023/09/24 09:32:39;;;;;;;1.10;1.10;;;;;;;29.03;58.54;99265.72;5113037;28;20222;-69
2023/09/24 09:35:06;;;;;;;2.27;1.60;;;;;;;29.05;57.44;99276.91;5112938;28;20549;-68
2023/09/24 09:37:33;;;;;;;1.80;1.70;;;;;;;29.15;57.71;99269.66;5113113;28;20578;-69
2023/09/24 09:40:03;;;;;;;1.08;1.08;;;;;;;29.16;56.61;99267.84;5112828;28;20199;-69
2023/09/24 09:42:32;;;;;;;1.45;1.35;;;;;;;29.15;57.71;99267.00;5105826;28;20203;-69
2023/09/24 09:45:02;;;;;;;1.58;1.23;;;;;;;29.35;57.30;99264.84;5112430;28;20758;-69
2023/09/24 09:47:34;;;;;;;3.67;2.13;;;;;;;29.60;57.73;99265.59;5112740;28;20244;-69
2023/09/24 09:50:01;;;;;;;3.17;1.65;;;;;;;29.73;56.33;99263.22;5112706;28;20672;-69
2023/09/24 09:52:34;;;;;;;1.58;1.48;;;;;;;29.76;56.63;99252.31;5112435;28;20205;-69
2023/09/24 09:55:04;;;;;;;1.38;1.27;;;;;;;29.84;54.65;99254.16;5112419;28;20368;-69
2023/09/24 09:57:32;;;;;;;1.48;1.48;;;;;;;29.78;54.62;99255.63;5112655;28;20218;-69
2023/09/24 10:00:00;;;;;;;7.35;1.50;;;;;;;30.01;54.83;99261.00;5112521;27;20649;-69
2023/09/24 10:02:29;;;;;;;1.15;1.15;;;;;;;29.97;54.60;99249.13;5112223;28;20227;-68
2023/09/24 10:04:57;;;;;;;2.05;1.40;;;;;;;30.06;54.74;99254.19;5112312;28;20254;-69
2023/09/24 10:07:25;;;;;;;2.33;1.10;;;;;;;30.02;53.34;99247.59;5112045;28;20252;-68
2023/09/24 10:09:52;;;;;;;1.67;1.30;;;;;;;30.04;53.03;99247.44;5112629;28;20289;-69
2023/09/24 10:15:28;;;;;;;1.40;1.35;;;;;;;29.92;52.86;99231.13;5088464;27;20561;-70
2023/09/24 10:18:23;;;;;;;5.43;1.67;;;;;;;30.11;52.20;99246.56;5087270;28;20634;-70
2023/09/24 10:21:03;;;;;;;1.30;1.20;;;;;;;30.20;53.70;99239.41;5088475;28;20235;-70
2023/09/24 10:23:34;;;;;;;1.20;1.20;;;;;;;30.34;53.88;99224.63;5088351;28;20567;-70
2023/09/24 10:26:04;;;;;;;1.90;1.80;;;;;;;30.45;53.13;99229.50;5087864;28;20208;-70
2023/09/24 10:28:50;;;;;;;2.78;1.13;;;;;;;30.43;52.93;99226.22;5087998;28;20202;-70
2023/09/24 10:31:20;;;;;;;1.00;1.00;;;;;;;30.59;52.70;99229.56;5088084;28;20199;-71
2023/09/24 10:33:58;;;;;;;1.40;1.20;;;;;;;30.68;52.47;99227.66;5088522;28;20219;-70
2023/09/24 10:36:29;;;;;;;1.80;1.70;;;;;;;30.66;50.71;99221.75;5084673;28;20429;-70
2023/09/24 10:39:04;;;;;;;1.75;1.65;;;;;;;30.63;51.46;99230.03;5087242;28;20253;-70
2023/09/24 10:41:31;;;;;;;1.45;1.40;;;;;;;30.38;51.39;99215.31;5085906;28;20231;-70
2023/09/24 10:44:22;;;;;;;1.42;1.33;;;;;;;30.29;52.26;99216.38;5087286;28;20283;-71
2023/09/24 10:46:52;;;;;;;1.50;1.40;;;;;;;30.37;51.88;99213.69;5086897;28;20679;-70
2023/09/24 10:49:21;;;;;;;1.73;1.52;;;;;;;30.37;51.39;99211.03;5087172;28;20320;-71
2023/09/24 10:51:47;;;;;;;1.02;1.02;;;;;;;30.38;52.69;99188.84;5087100;28;20586;-72
2023/09/24 10:54:15;;;;;;;1.42;1.35;;;;;;;30.55;51.76;99208.94;5083553;28;20219;-70
2023/09/24 10:56:46;;;;;;;3.65;1.15;;;;;;;30.49;51.37;99196.41;5083612;28;20214;-70
2023/09/24 10:59:13;;;;;;;2.40;1.30;;;;;;;30.47;51.75;99198.44;5084630;28;20709;-70
2023/09/24 11:01:40;;;;;;;2.63;1.08;;;;;;;30.63;53.38;99190.34;5082945;28;20736;-67
2023/09/24 11:04:09;;;;;;;1.13;1.13;;;;;;;30.68;51.17;99188.81;5083706;28;20196;-67
2023/09/24 11:06:37;;;;;;;1.40;1.40;;;;;;;30.73;51.43;99177.66;5085454;28;20199;-68
2023/09/24 11:09:17;;;;;;;1.60;1.52;;;;;;;30.61;50.72;99179.94;5085627;28;20236;-68
2023/09/24 11:11:44;;;;;;;1.45;1.38;;;;;;;30.53;52.31;99176.53;5085260;28;20686;-70
2023/09/24 11:14:16;;;;;;;2.10;1.55;;;;;;;30.69;51.93;99176.41;5084357;28;20227;-70
2023/09/24 11:16:43;;;;;;;1.70;1.60;;;;;;;30.84;51.52;99174.59;5084382;28;20663;-70
2023/09/24 11:19:11;;;;;;;1.83;1.35;;;;;;;30.89;49.77;99166.13;5084160;28;20663;-71
2023/09/24 11:21:38;;;;;;;1.60;1.52;;;;;;;30.78;48.79;99167.38;5083361;28;20207;-71
2023/09/24 11:24:20;;;;;;;1.88;1.20;;;;;;;30.63;49.80;99158.59;5084479;28;20696;-71
2023/09/24 11:26:47;;;;;;;1.15;1.10;;;;;;;30.67;49.88;99162.50;5065289;28;20337;-71
2023/09/24 11:29:14;;;;;;;1.90;1.27;;;;;;;30.62;49.63;99154.28;5071748;28;20681;-71
2023/09/24 11:31:45;;;;;;;2.15;1.33;;;;;;;30.63;51.18;99158.59;5071834;28;20265;-70
2023/09/24 11:34:22;;;;;;;1.75;1.67;;;;;;;30.67;51.04;99151.91;5068192;28;20216;-71
2023/09/24 11:36:54;;;;;;;1.25;1.10;;;;;;;30.80;50.90;99146.81;5069464;28;20220;-70
2023/09/24 11:39:21;;;;;;;1.02;1.02;;;;;;;30.84;50.81;99150.75;5068202;28;20208;-69
2023/09/24 11:41:47;;;;;;;1.25;1.15;;;;;;;30.85;50.33;99147.13;5062393;28;20584;-71